sensor_id;sensor_type;location;lat;lon;timestamp;temperature;humidity
61641;HTU21D;62201;49.966;8.342;2022-10-19T00:00:25;13.16;104.71
61641;HTU21D;62201;49.966;8.342;2022-10-19T00:02:51;13.08;104.54
61641;HTU21D;62201;49.966;8.342;2022-10-19T00:05:16;13.03;104.45
61641;HTU21D;62201;49.966;8.342;2022-10-19T00:07:42;12.96;104.45
61641;HTU21D;62201;49.966;8.342;2022-10-19T00:10:07;12.93;104.40
61641;HTU21D;62201;49.966;8.342;2022-10-19T00:12:33;12.96;105.00
61641;HTU21D;62201;49.966;8.342;2022-10-19T00:14:58;12.94;105.05
61641;HTU21D;62201;49.966;8.342;2022-10-19T00:17:24;12.91;105.06
61641;HTU21D;62201;49.966;8.342;2022-10-19T00:19:49;12.90;104.98
61641;HTU21D;62201;49.966;8.342;2022-10-19T00:22:15;12.85;105.01
61641;HTU21D;62201;49.966;8.342;2022-10-19T00:24:40;12.80;104.94
61641;HTU21D;62201;49.966;8.342;2022-10-19T00:27:06;12.75;105.02
61641;HTU21D;62201;49.966;8.342;2022-10-19T00:29:31;12.71;104.98
61641;HTU21D;62201;49.966;8.342;2022-10-19T00:31:57;12.63;104.97
61641;HTU21D;62201;49.966;8.342;2022-10-19T00:34:22;12.63;105.11
61641;HTU21D;62201;49.966;8.342;2022-10-19T00:36:48;12.57;105.08
61641;HTU21D;62201;49.966;8.342;2022-10-19T00:39:15;12.58;105.21
61641;HTU21D;62201;49.966;8.342;2022-10-19T00:41:42;12.53;105.23
61641;HTU21D;62201;49.966;8.342;2022-10-19T00:46:41;12.45;105.21
61641;HTU21D;62201;49.966;8.342;2022-10-19T00:49:12;12.38;104.98
61641;HTU21D;62201;49.966;8.342;2022-10-19T00:51:44;12.37;105.26
61641;HTU21D;62201;49.966;8.342;2022-10-19T00:54:12;12.37;105.43
61641;HTU21D;62201;49.966;8.342;2022-10-19T00:56:40;12.36;105.56
61641;HTU21D;62201;49.966;8.342;2022-10-19T00:59:07;12.29;105.40
61641;HTU21D;62201;49.966;8.342;2022-10-19T01:01:33;12.32;105.82
61641;HTU21D;62201;49.966;8.342;2022-10-19T01:03:59;12.30;105.74
61641;HTU21D;62201;49.966;8.342;2022-10-19T01:06:25;12.26;105.73
61641;HTU21D;62201;49.966;8.342;2022-10-19T01:08:51;12.23;105.75
61641;HTU21D;62201;49.966;8.342;2022-10-19T01:19:51;12.15;105.76
61641;HTU21D;62201;49.966;8.342;2022-10-19T01:28:09;12.27;106.18
61641;HTU21D;62201;49.966;8.342;2022-10-19T01:31:02;12.23;105.99
61641;HTU21D;62201;49.966;8.342;2022-10-19T01:39:12;12.12;105.89
61641;HTU21D;62201;49.966;8.342;2022-10-19T01:46:55;12.03;105.87
61641;HTU21D;62201;49.966;8.342;2022-10-19T01:49:28;12.00;105.93
61641;HTU21D;62201;49.966;8.342;2022-10-19T01:52:00;11.97;105.89
61641;HTU21D;62201;49.966;8.342;2022-10-19T01:54:31;11.99;105.98
61641;HTU21D;62201;49.966;8.342;2022-10-19T01:56:59;12.00;105.95
61641;HTU21D;62201;49.966;8.342;2022-10-19T01:59:26;11.98;105.81
61641;HTU21D;62201;49.966;8.342;2022-10-19T02:01:53;11.99;105.85
61641;HTU21D;62201;49.966;8.342;2022-10-19T02:04:21;12.03;105.88
61641;HTU21D;62201;49.966;8.342;2022-10-19T02:06:49;12.08;105.87
61641;HTU21D;62201;49.966;8.342;2022-10-19T02:09:16;12.06;105.61
61641;HTU21D;62201;49.966;8.342;2022-10-19T02:11:45;12.05;105.34
61641;HTU21D;62201;49.966;8.342;2022-10-19T02:14:14;12.01;105.15
61641;HTU21D;62201;49.966;8.342;2022-10-19T02:16:47;12.02;105.00
61641;HTU21D;62201;49.966;8.342;2022-10-19T02:19:13;12.01;104.95
61641;HTU21D;62201;49.966;8.342;2022-10-19T02:21:40;12.03;105.02
61641;HTU21D;62201;49.966;8.342;2022-10-19T02:24:05;12.01;104.69
61641;HTU21D;62201;49.966;8.342;2022-10-19T02:26:31;11.96;104.50
61641;HTU21D;62201;49.966;8.342;2022-10-19T02:28:57;11.94;104.63
61641;HTU21D;62201;49.966;8.342;2022-10-19T02:31:23;11.94;104.67
61641;HTU21D;62201;49.966;8.342;2022-10-19T02:33:49;11.98;104.64
61641;HTU21D;62201;49.966;8.342;2022-10-19T02:36:15;12.00;104.34
61641;HTU21D;62201;49.966;8.342;2022-10-19T02:38:41;11.98;104.33
61641;HTU21D;62201;49.966;8.342;2022-10-19T02:41:17;12.05;104.35
61641;HTU21D;62201;49.966;8.342;2022-10-19T02:43:47;12.04;104.02
61641;HTU21D;62201;49.966;8.342;2022-10-19T02:46:27;12.05;103.74
61641;HTU21D;62201;49.966;8.342;2022-10-19T02:48:56;12.01;103.47
61641;HTU21D;62201;49.966;8.342;2022-10-19T02:51:38;12.01;103.32
61641;HTU21D;62201;49.966;8.342;2022-10-19T02:54:05;11.99;103.25
61641;HTU21D;62201;49.966;8.342;2022-10-19T02:56:32;12.02;103.44
61641;HTU21D;62201;49.966;8.342;2022-10-19T02:58:58;12.07;103.60
61641;HTU21D;62201;49.966;8.342;2022-10-19T03:01:23;12.13;103.65
61641;HTU21D;62201;49.966;8.342;2022-10-19T03:03:49;12.19;103.63
61641;HTU21D;62201;49.966;8.342;2022-10-19T03:06:14;12.25;103.57
61641;HTU21D;62201;49.966;8.342;2022-10-19T03:08:40;12.32;103.58
61641;HTU21D;62201;49.966;8.342;2022-10-19T03:11:05;12.41;103.34
61641;HTU21D;62201;49.966;8.342;2022-10-19T03:13:31;12.48;103.25
61641;HTU21D;62201;49.966;8.342;2022-10-19T03:15:57;12.53;102.92
61641;HTU21D;62201;49.966;8.342;2022-10-19T03:18:22;12.57;102.75
61641;HTU21D;62201;49.966;8.342;2022-10-19T03:20:47;12.64;102.80
61641;HTU21D;62201;49.966;8.342;2022-10-19T03:23:13;12.70;102.62
61641;HTU21D;62201;49.966;8.342;2022-10-19T03:25:38;12.75;102.35
61641;HTU21D;62201;49.966;8.342;2022-10-19T03:28:03;12.80;101.99
61641;HTU21D;62201;49.966;8.342;2022-10-19T03:30:29;12.84;101.89
61641;HTU21D;62201;49.966;8.342;2022-10-19T03:32:54;12.88;101.73
61641;HTU21D;62201;49.966;8.342;2022-10-19T03:35:20;12.92;101.39
61641;HTU21D;62201;49.966;8.342;2022-10-19T03:37:45;12.94;100.77
61641;HTU21D;62201;49.966;8.342;2022-10-19T03:40:11;12.97;100.32
61641;HTU21D;62201;49.966;8.342;2022-10-19T03:42:36;13.01;100.29
61641;HTU21D;62201;49.966;8.342;2022-10-19T03:45:02;13.03;100.24
61641;HTU21D;62201;49.966;8.342;2022-10-19T03:47:27;13.12;99.35
61641;HTU21D;62201;49.966;8.342;2022-10-19T03:49:53;13.17;98.61
61641;HTU21D;62201;49.966;8.342;2022-10-19T03:52:19;13.19;98.32
61641;HTU21D;62201;49.966;8.342;2022-10-19T03:54:45;13.20;97.68
61641;HTU21D;62201;49.966;8.342;2022-10-19T03:57:13;13.19;97.13
61641;HTU21D;62201;49.966;8.342;2022-10-19T03:59:38;13.16;97.21
61641;HTU21D;62201;49.966;8.342;2022-10-19T04:02:04;13.14;97.16
61641;HTU21D;62201;49.966;8.342;2022-10-19T04:04:29;13.09;96.84
61641;HTU21D;62201;49.966;8.342;2022-10-19T04:06:54;13.01;96.46
61641;HTU21D;62201;49.966;8.342;2022-10-19T04:09:21;12.92;96.42
61641;HTU21D;62201;49.966;8.342;2022-10-19T04:11:47;12.87;96.06
61641;HTU21D;62201;49.966;8.342;2022-10-19T04:14:16;12.78;95.87
61641;HTU21D;62201;49.966;8.342;2022-10-19T04:16:41;12.66;96.33
61641;HTU21D;62201;49.966;8.342;2022-10-19T04:19:07;12.56;96.81
61641;HTU21D;62201;49.966;8.342;2022-10-19T04:21:37;12.43;97.06
61641;HTU21D;62201;49.966;8.342;2022-10-19T04:24:07;12.31;97.60
61641;HTU21D;62201;49.966;8.342;2022-10-19T04:26:33;12.19;97.93
61641;HTU21D;62201;49.966;8.342;2022-10-19T04:29:00;12.10;98.29
61641;HTU21D;62201;49.966;8.342;2022-10-19T04:31:28;12.04;99.66
61641;HTU21D;62201;49.966;8.342;2022-10-19T04:33:54;12.03;100.03
61641;HTU21D;62201;49.966;8.342;2022-10-19T04:36:19;11.98;100.54
61641;HTU21D;62201;49.966;8.342;2022-10-19T04:38:45;12.00;101.19
61641;HTU21D;62201;49.966;8.342;2022-10-19T04:41:13;12.00;101.53
61641;HTU21D;62201;49.966;8.342;2022-10-19T04:43:39;11.99;101.29
61641;HTU21D;62201;49.966;8.342;2022-10-19T04:46:16;11.98;101.06
61641;HTU21D;62201;49.966;8.342;2022-10-19T04:48:42;11.98;101.46
61641;HTU21D;62201;49.966;8.342;2022-10-19T04:51:08;12.02;101.68
61641;HTU21D;62201;49.966;8.342;2022-10-19T04:53:35;12.04;101.54
61641;HTU21D;62201;49.966;8.342;2022-10-19T04:56:06;12.06;101.30
61641;HTU21D;62201;49.966;8.342;2022-10-19T04:58:32;12.07;101.15
61641;HTU21D;62201;49.966;8.342;2022-10-19T05:00:58;12.07;101.18
61641;HTU21D;62201;49.966;8.342;2022-10-19T05:03:23;12.07;101.06
61641;HTU21D;62201;49.966;8.342;2022-10-19T05:05:48;12.11;100.93
61641;HTU21D;62201;49.966;8.342;2022-10-19T05:08:14;12.14;100.58
61641;HTU21D;62201;49.966;8.342;2022-10-19T05:10:40;12.20;100.29
61641;HTU21D;62201;49.966;8.342;2022-10-19T05:13:05;12.22;99.96
61641;HTU21D;62201;49.966;8.342;2022-10-19T05:15:31;12.26;99.52
61641;HTU21D;62201;49.966;8.342;2022-10-19T05:17:56;12.27;99.31
61641;HTU21D;62201;49.966;8.342;2022-10-19T05:20:22;12.25;98.89
61641;HTU21D;62201;49.966;8.342;2022-10-19T05:22:48;12.20;98.84
61641;HTU21D;62201;49.966;8.342;2022-10-19T05:25:13;12.15;98.52
61641;HTU21D;62201;49.966;8.342;2022-10-19T05:27:38;12.11;98.59
61641;HTU21D;62201;49.966;8.342;2022-10-19T05:30:04;12.03;98.46
61641;HTU21D;62201;49.966;8.342;2022-10-19T05:32:30;11.96;98.68
61641;HTU21D;62201;49.966;8.342;2022-10-19T05:34:56;11.88;98.71
61641;HTU21D;62201;49.966;8.342;2022-10-19T05:37:21;11.84;98.88
61641;HTU21D;62201;49.966;8.342;2022-10-19T05:39:47;11.78;98.87
61641;HTU21D;62201;49.966;8.342;2022-10-19T05:42:12;11.76;99.00
61641;HTU21D;62201;49.966;8.342;2022-10-19T05:44:38;11.76;98.79
61641;HTU21D;62201;49.966;8.342;2022-10-19T05:47:03;11.77;98.19
61641;HTU21D;62201;49.966;8.342;2022-10-19T05:49:29;11.73;98.06
61641;HTU21D;62201;49.966;8.342;2022-10-19T05:51:54;11.69;98.32
61641;HTU21D;62201;49.966;8.342;2022-10-19T05:54:20;11.67;98.19
61641;HTU21D;62201;49.966;8.342;2022-10-19T05:56:46;11.70;98.32
61641;HTU21D;62201;49.966;8.342;2022-10-19T05:59:17;11.69;98.19
61641;HTU21D;62201;49.966;8.342;2022-10-19T06:01:43;11.67;98.19
61641;HTU21D;62201;49.966;8.342;2022-10-19T06:04:09;11.70;98.42
61641;HTU21D;62201;49.966;8.342;2022-10-19T06:06:35;11.73;98.28
61641;HTU21D;62201;49.966;8.342;2022-10-19T06:09:01;11.75;98.23
61641;HTU21D;62201;49.966;8.342;2022-10-19T06:11:29;11.78;97.94
61641;HTU21D;62201;49.966;8.342;2022-10-19T06:13:57;11.84;97.59
61641;HTU21D;62201;49.966;8.342;2022-10-19T06:16:25;11.86;97.36
61641;HTU21D;62201;49.966;8.342;2022-10-19T06:18:52;11.86;97.31
61641;HTU21D;62201;49.966;8.342;2022-10-19T06:21:19;11.86;97.36
61641;HTU21D;62201;49.966;8.342;2022-10-19T06:23:52;11.89;97.13
61641;HTU21D;62201;49.966;8.342;2022-10-19T06:26:18;11.87;96.91
61641;HTU21D;62201;49.966;8.342;2022-10-19T06:28:44;11.88;97.09
61641;HTU21D;62201;49.966;8.342;2022-10-19T06:31:10;11.88;96.87
61641;HTU21D;62201;49.966;8.342;2022-10-19T06:33:38;11.89;96.94
61641;HTU21D;62201;49.966;8.342;2022-10-19T06:38:31;11.91;96.55
61641;HTU21D;62201;49.966;8.342;2022-10-19T06:40:59;11.90;96.43
61641;HTU21D;62201;49.966;8.342;2022-10-19T06:43:25;11.92;96.12
61641;HTU21D;62201;49.966;8.342;2022-10-19T06:45:50;11.91;96.30
61641;HTU21D;62201;49.966;8.342;2022-10-19T06:48:16;11.91;96.13
61641;HTU21D;62201;49.966;8.342;2022-10-19T06:50:41;11.89;96.23
61641;HTU21D;62201;49.966;8.342;2022-10-19T06:53:07;11.91;96.10
61641;HTU21D;62201;49.966;8.342;2022-10-19T06:55:32;11.93;96.12
61641;HTU21D;62201;49.966;8.342;2022-10-19T06:57:58;11.93;96.23
61641;HTU21D;62201;49.966;8.342;2022-10-19T07:00:26;11.99;96.03
61641;HTU21D;62201;49.966;8.342;2022-10-19T07:02:52;12.03;95.98
61641;HTU21D;62201;49.966;8.342;2022-10-19T07:05:17;12.12;95.63
61641;HTU21D;62201;49.966;8.342;2022-10-19T07:07:43;12.23;95.41
61641;HTU21D;62201;49.966;8.342;2022-10-19T07:10:09;12.33;94.85
61641;HTU21D;62201;49.966;8.342;2022-10-19T07:12:35;12.46;94.60
61641;HTU21D;62201;49.966;8.342;2022-10-19T07:15:00;12.63;94.51
61641;HTU21D;62201;49.966;8.342;2022-10-19T07:17:25;12.73;93.66
61641;HTU21D;62201;49.966;8.342;2022-10-19T07:19:51;12.86;92.92
61641;HTU21D;62201;49.966;8.342;2022-10-19T07:22:16;12.96;92.42
61641;HTU21D;62201;49.966;8.342;2022-10-19T07:24:42;13.06;92.21
61641;HTU21D;62201;49.966;8.342;2022-10-19T07:27:07;13.12;91.92
61641;HTU21D;62201;49.966;8.342;2022-10-19T07:29:33;13.19;91.47
61641;HTU21D;62201;49.966;8.342;2022-10-19T07:31:58;13.25;91.22
61641;HTU21D;62201;49.966;8.342;2022-10-19T07:34:23;13.26;90.01
61641;HTU21D;62201;49.966;8.342;2022-10-19T07:36:49;13.30;89.90
61641;HTU21D;62201;49.966;8.342;2022-10-19T07:39:15;13.31;89.41
61641;HTU21D;62201;49.966;8.342;2022-10-19T07:41:44;13.31;88.40
61641;HTU21D;62201;49.966;8.342;2022-10-19T07:44:09;13.38;88.68
61641;HTU21D;62201;49.966;8.342;2022-10-19T07:46:35;13.36;87.86
61641;HTU21D;62201;49.966;8.342;2022-10-19T07:49:05;13.35;87.72
61641;HTU21D;62201;49.966;8.342;2022-10-19T07:51:31;13.40;87.82
61641;HTU21D;62201;49.966;8.342;2022-10-19T07:53:57;13.50;87.03
61641;HTU21D;62201;49.966;8.342;2022-10-19T07:56:24;13.53;86.30
61641;HTU21D;62201;49.966;8.342;2022-10-19T07:58:51;13.62;86.47
61641;HTU21D;62201;49.966;8.342;2022-10-19T08:01:19;13.65;84.84
61641;HTU21D;62201;49.966;8.342;2022-10-19T08:03:46;13.65;84.68
61641;HTU21D;62201;49.966;8.342;2022-10-19T08:06:14;13.67;84.29
61641;HTU21D;62201;49.966;8.342;2022-10-19T08:08:41;13.69;83.45
61641;HTU21D;62201;49.966;8.342;2022-10-19T08:11:12;13.74;83.33
61641;HTU21D;62201;49.966;8.342;2022-10-19T08:13:38;13.68;82.22
61641;HTU21D;62201;49.966;8.342;2022-10-19T08:16:04;13.76;82.13
61641;HTU21D;62201;49.966;8.342;2022-10-19T08:18:30;13.78;81.88
61641;HTU21D;62201;49.966;8.342;2022-10-19T08:20:55;13.85;82.03
61641;HTU21D;62201;49.966;8.342;2022-10-19T08:23:21;13.90;81.65
61641;HTU21D;62201;49.966;8.342;2022-10-19T08:25:55;13.89;80.88
61641;HTU21D;62201;49.966;8.342;2022-10-19T08:28:21;13.92;81.03
61641;HTU21D;62201;49.966;8.342;2022-10-19T08:30:46;13.88;80.33
61641;HTU21D;62201;49.966;8.342;2022-10-19T08:33:12;13.85;80.07
61641;HTU21D;62201;49.966;8.342;2022-10-19T08:35:39;13.80;79.75
61641;HTU21D;62201;49.966;8.342;2022-10-19T08:38:04;13.83;80.46
61641;HTU21D;62201;49.966;8.342;2022-10-19T08:40:30;13.92;79.87
61641;HTU21D;62201;49.966;8.342;2022-10-19T08:48:30;14.27;79.02
61641;HTU21D;62201;49.966;8.342;2022-10-19T08:51:01;14.37;78.57
61641;HTU21D;62201;49.966;8.342;2022-10-19T08:56:22;14.40;77.17
61641;HTU21D;62201;49.966;8.342;2022-10-19T09:01:39;14.62;76.90
61641;HTU21D;62201;49.966;8.342;2022-10-19T09:04:24;14.89;76.02
61641;HTU21D;62201;49.966;8.342;2022-10-19T09:07:06;14.95;75.73
61641;HTU21D;62201;49.966;8.342;2022-10-19T09:09:47;14.93;75.31
61641;HTU21D;62201;49.966;8.342;2022-10-19T09:12:16;15.04;75.39
61641;HTU21D;62201;49.966;8.342;2022-10-19T09:15:02;15.24;74.67
61641;HTU21D;62201;49.966;8.342;2022-10-19T09:17:30;15.60;73.23
61641;HTU21D;62201;49.966;8.342;2022-10-19T09:19:55;15.89;71.79
61641;HTU21D;62201;49.966;8.342;2022-10-19T09:22:27;16.11;71.56
61641;HTU21D;62201;49.966;8.342;2022-10-19T09:25:11;16.19;71.08
61641;HTU21D;62201;49.966;8.342;2022-10-19T09:27:38;15.96;71.11
61641;HTU21D;62201;49.966;8.342;2022-10-19T09:30:14;16.08;70.48
61641;HTU21D;62201;49.966;8.342;2022-10-19T09:32:41;16.34;70.45
61641;HTU21D;62201;49.966;8.342;2022-10-19T09:35:31;16.48;69.37
61641;HTU21D;62201;49.966;8.342;2022-10-19T09:37:58;16.48;69.36
61641;HTU21D;62201;49.966;8.342;2022-10-19T09:40:27;16.58;69.14
61641;HTU21D;62201;49.966;8.342;2022-10-19T09:42:53;16.71;68.75
61641;HTU21D;62201;49.966;8.342;2022-10-19T09:47:57;17.28;67.39
61641;HTU21D;62201;49.966;8.342;2022-10-19T09:50:26;17.18;67.19
61641;HTU21D;62201;49.966;8.342;2022-10-19T09:53:02;17.04;67.04
61641;HTU21D;62201;49.966;8.342;2022-10-19T09:55:42;16.92;67.49
61641;HTU21D;62201;49.966;8.342;2022-10-19T10:00:47;17.09;67.39
61641;HTU21D;62201;49.966;8.342;2022-10-19T10:05:51;17.13;67.28
61641;HTU21D;62201;49.966;8.342;2022-10-19T10:08:19;17.05;67.68
61641;HTU21D;62201;49.966;8.342;2022-10-19T10:10:52;17.17;67.68
61641;HTU21D;62201;49.966;8.342;2022-10-19T10:13:20;17.54;66.91
61641;HTU21D;62201;49.966;8.342;2022-10-19T10:15:53;17.49;66.48
61641;HTU21D;62201;49.966;8.342;2022-10-19T10:18:22;17.49;66.36
61641;HTU21D;62201;49.966;8.342;2022-10-19T10:20:57;17.67;66.18
61641;HTU21D;62201;49.966;8.342;2022-10-19T10:23:25;17.56;65.95
61641;HTU21D;62201;49.966;8.342;2022-10-19T10:25:54;17.51;66.04
61641;HTU21D;62201;49.966;8.342;2022-10-19T10:28:23;17.66;66.22
61641;HTU21D;62201;49.966;8.342;2022-10-19T10:30:53;17.19;67.65
61641;HTU21D;62201;49.966;8.342;2022-10-19T10:33:23;16.90;69.17
61641;HTU21D;62201;49.966;8.342;2022-10-19T10:35:51;16.46;70.97
61641;HTU21D;62201;49.966;8.342;2022-10-19T10:38:25;16.55;70.92
61641;HTU21D;62201;49.966;8.342;2022-10-19T10:41:15;16.31;72.19
61641;HTU21D;62201;49.966;8.342;2022-10-19T10:44:00;16.14;73.61
61641;HTU21D;62201;49.966;8.342;2022-10-19T10:46:33;15.96;74.43
61641;HTU21D;62201;49.966;8.342;2022-10-19T10:49:02;15.75;75.87
61641;HTU21D;62201;49.966;8.342;2022-10-19T10:51:39;15.66;76.32
61641;HTU21D;62201;49.966;8.342;2022-10-19T10:54:39;15.69;76.28
61641;HTU21D;62201;49.966;8.342;2022-10-19T10:57:11;15.48;77.15
61641;HTU21D;62201;49.966;8.342;2022-10-19T11:05:10;15.52;77.79
61641;HTU21D;62201;49.966;8.342;2022-10-19T11:07:42;15.58;78.26
61641;HTU21D;62201;49.966;8.342;2022-10-19T11:10:24;15.68;78.47
61641;HTU21D;62201;49.966;8.342;2022-10-19T11:13:09;15.77;78.27
61641;HTU21D;62201;49.966;8.342;2022-10-19T11:15:46;15.63;78.17
61641;HTU21D;62201;49.966;8.342;2022-10-19T11:18:21;15.52;79.09
61641;HTU21D;62201;49.966;8.342;2022-10-19T11:21:09;15.52;79.97
61641;HTU21D;62201;49.966;8.342;2022-10-19T11:26:54;15.52;79.73
61641;HTU21D;62201;49.966;8.342;2022-10-19T11:38:28;15.36;81.37
61641;HTU21D;62201;49.966;8.342;2022-10-19T11:46:57;15.75;80.22
61641;HTU21D;62201;49.966;8.342;2022-10-19T11:52:20;15.68;80.50
61641;HTU21D;62201;49.966;8.342;2022-10-19T11:57:25;15.74;80.40
61641;HTU21D;62201;49.966;8.342;2022-10-19T12:00:17;15.65;80.65
61641;HTU21D;62201;49.966;8.342;2022-10-19T12:03:24;15.68;81.00
61641;HTU21D;62201;49.966;8.342;2022-10-19T12:06:10;15.65;81.33
61641;HTU21D;62201;49.966;8.342;2022-10-19T12:14:38;15.83;81.18
61641;HTU21D;62201;49.966;8.342;2022-10-19T12:17:09;15.84;81.10
61641;HTU21D;62201;49.966;8.342;2022-10-19T12:19:45;15.88;80.89
61641;HTU21D;62201;49.966;8.342;2022-10-19T12:22:24;15.93;80.68
61641;HTU21D;62201;49.966;8.342;2022-10-19T12:24:53;15.86;80.64
61641;HTU21D;62201;49.966;8.342;2022-10-19T12:27:27;15.86;80.78
61641;HTU21D;62201;49.966;8.342;2022-10-19T12:29:54;15.88;80.79
61641;HTU21D;62201;49.966;8.342;2022-10-19T12:32:22;15.97;80.72
61641;HTU21D;62201;49.966;8.342;2022-10-19T12:34:56;15.96;80.14
61641;HTU21D;62201;49.966;8.342;2022-10-19T12:40:02;16.10;79.97
61641;HTU21D;62201;49.966;8.342;2022-10-19T12:45:11;16.16;79.75
61641;HTU21D;62201;49.966;8.342;2022-10-19T12:51:02;16.12;79.80
61641;HTU21D;62201;49.966;8.342;2022-10-19T12:53:35;16.07;79.66
61641;HTU21D;62201;49.966;8.342;2022-10-19T12:56:14;16.04;79.90
61641;HTU21D;62201;49.966;8.342;2022-10-19T13:01:14;15.97;79.79
61641;HTU21D;62201;49.966;8.342;2022-10-19T13:03:42;15.98;79.67
61641;HTU21D;62201;49.966;8.342;2022-10-19T13:06:36;15.96;79.72
61641;HTU21D;62201;49.966;8.342;2022-10-19T13:09:04;15.88;80.08
61641;HTU21D;62201;49.966;8.342;2022-10-19T13:11:30;15.95;79.86
61641;HTU21D;62201;49.966;8.342;2022-10-19T13:13:57;16.00;79.67
61641;HTU21D;62201;49.966;8.342;2022-10-19T13:16:57;16.01;79.73
61641;HTU21D;62201;49.966;8.342;2022-10-19T13:19:23;16.00;79.78
61641;HTU21D;62201;49.966;8.342;2022-10-19T13:27:20;16.16;80.32
61641;HTU21D;62201;49.966;8.342;2022-10-19T13:29:50;16.24;79.90
61641;HTU21D;62201;49.966;8.342;2022-10-19T13:32:35;16.18;79.88
61641;HTU21D;62201;49.966;8.342;2022-10-19T13:44:35;16.22;80.12
61641;HTU21D;62201;49.966;8.342;2022-10-19T13:47:34;16.20;79.86
61641;HTU21D;62201;49.966;8.342;2022-10-19T13:52:42;16.15;80.14
61641;HTU21D;62201;49.966;8.342;2022-10-19T13:55:47;16.20;79.90
61641;HTU21D;62201;49.966;8.342;2022-10-19T13:58:57;16.18;80.27
61641;HTU21D;62201;49.966;8.342;2022-10-19T14:01:42;16.22;80.38
61641;HTU21D;62201;49.966;8.342;2022-10-19T14:04:19;16.21;80.30
61641;HTU21D;62201;49.966;8.342;2022-10-19T14:10:01;16.21;80.28
61641;HTU21D;62201;49.966;8.342;2022-10-19T14:12:29;16.20;80.38
61641;HTU21D;62201;49.966;8.342;2022-10-19T14:14:57;16.24;80.49
61641;HTU21D;62201;49.966;8.342;2022-10-19T14:17:29;16.21;80.38
61641;HTU21D;62201;49.966;8.342;2022-10-19T14:19:58;16.22;80.52
61641;HTU21D;62201;49.966;8.342;2022-10-19T14:24:49;16.25;80.59
61641;HTU21D;62201;49.966;8.342;2022-10-19T14:27:18;16.20;80.62
61641;HTU21D;62201;49.966;8.342;2022-10-19T14:29:48;16.16;80.84
61641;HTU21D;62201;49.966;8.342;2022-10-19T14:32:24;16.15;81.03
61641;HTU21D;62201;49.966;8.342;2022-10-19T14:34:51;16.14;81.31
61641;HTU21D;62201;49.966;8.342;2022-10-19T14:37:22;16.17;81.36
61641;HTU21D;62201;49.966;8.342;2022-10-19T14:40:15;16.13;81.33
61641;HTU21D;62201;49.966;8.342;2022-10-19T14:42:46;16.10;81.37
61641;HTU21D;62201;49.966;8.342;2022-10-19T14:45:15;16.06;81.52
61641;HTU21D;62201;49.966;8.342;2022-10-19T14:48:04;16.05;81.39
61641;HTU21D;62201;49.966;8.342;2022-10-19T14:53:08;16.01;81.53
61641;HTU21D;62201;49.966;8.342;2022-10-19T14:55:40;15.99;81.39
61641;HTU21D;62201;49.966;8.342;2022-10-19T14:58:12;15.99;81.56
61641;HTU21D;62201;49.966;8.342;2022-10-19T15:00:39;15.96;81.10
61641;HTU21D;62201;49.966;8.342;2022-10-19T15:03:08;15.90;81.11
61641;HTU21D;62201;49.966;8.342;2022-10-19T15:05:39;15.83;81.18
61641;HTU21D;62201;49.966;8.342;2022-10-19T15:08:19;15.76;81.21
61641;HTU21D;62201;49.966;8.342;2022-10-19T15:10:46;15.75;81.40
61641;HTU21D;62201;49.966;8.342;2022-10-19T15:13:26;15.69;81.56
61641;HTU21D;62201;49.966;8.342;2022-10-19T15:15:53;15.62;81.89
61641;HTU21D;62201;49.966;8.342;2022-10-19T15:18:22;15.54;81.95
61641;HTU21D;62201;49.966;8.342;2022-10-19T15:21:00;15.49;82.01
61641;HTU21D;62201;49.966;8.342;2022-10-19T15:26:28;15.44;82.33
61641;HTU21D;62201;49.966;8.342;2022-10-19T15:29:05;15.42;82.41
61641;HTU21D;62201;49.966;8.342;2022-10-19T15:31:31;15.34;82.14
61641;HTU21D;62201;49.966;8.342;2022-10-19T15:33:58;15.34;81.99
61641;HTU21D;62201;49.966;8.342;2022-10-19T15:36:25;15.33;81.97
61641;HTU21D;62201;49.966;8.342;2022-10-19T15:41:31;15.28;81.88
61641;HTU21D;62201;49.966;8.342;2022-10-19T15:43:59;15.26;81.68
61641;HTU21D;62201;49.966;8.342;2022-10-19T15:52:17;15.18;82.30
61641;HTU21D;62201;49.966;8.342;2022-10-19T15:54:46;15.15;82.27
61641;HTU21D;62201;49.966;8.342;2022-10-19T15:59:49;15.08;82.40
61641;HTU21D;62201;49.966;8.342;2022-10-19T16:02:15;15.02;82.26
61641;HTU21D;62201;49.966;8.342;2022-10-19T16:04:40;14.99;82.37
61641;HTU21D;62201;49.966;8.342;2022-10-19T16:07:05;14.99;82.55
61641;HTU21D;62201;49.966;8.342;2022-10-19T16:09:31;14.96;82.58
61641;HTU21D;62201;49.966;8.342;2022-10-19T16:11:56;14.94;82.43
61641;HTU21D;62201;49.966;8.342;2022-10-19T16:14:23;14.93;82.39
61641;HTU21D;62201;49.966;8.342;2022-10-19T16:16:50;14.87;82.61
61641;HTU21D;62201;49.966;8.342;2022-10-19T16:19:16;14.81;83.35
61641;HTU21D;62201;49.966;8.342;2022-10-19T16:21:41;14.72;83.11
61641;HTU21D;62201;49.966;8.342;2022-10-19T16:24:06;14.68;83.41
61641;HTU21D;62201;49.966;8.342;2022-10-19T16:26:32;14.60;83.74
61641;HTU21D;62201;49.966;8.342;2022-10-19T16:28:58;14.55;83.92
61641;HTU21D;62201;49.966;8.342;2022-10-19T16:31:24;14.50;84.12
61641;HTU21D;62201;49.966;8.342;2022-10-19T16:33:50;14.43;84.66
61641;HTU21D;62201;49.966;8.342;2022-10-19T16:36:15;14.41;84.74
61641;HTU21D;62201;49.966;8.342;2022-10-19T16:38:44;14.34;85.09
61641;HTU21D;62201;49.966;8.342;2022-10-19T16:41:09;14.30;85.42
61641;HTU21D;62201;49.966;8.342;2022-10-19T16:43:35;14.29;85.41
61641;HTU21D;62201;49.966;8.342;2022-10-19T16:46:02;14.27;85.60
61641;HTU21D;62201;49.966;8.342;2022-10-19T16:48:28;14.22;85.80
61641;HTU21D;62201;49.966;8.342;2022-10-19T16:53:34;14.12;86.29
61641;HTU21D;62201;49.966;8.342;2022-10-19T16:56:05;14.09;86.41
61641;HTU21D;62201;49.966;8.342;2022-10-19T16:58:31;14.09;86.60
61641;HTU21D;62201;49.966;8.342;2022-10-19T17:00:57;14.08;86.62
61641;HTU21D;62201;49.966;8.342;2022-10-19T17:03:27;14.09;86.70
61641;HTU21D;62201;49.966;8.342;2022-10-19T17:05:52;14.07;86.81
61641;HTU21D;62201;49.966;8.342;2022-10-19T17:08:17;14.08;86.84
61641;HTU21D;62201;49.966;8.342;2022-10-19T17:10:43;14.05;86.97
61641;HTU21D;62201;49.966;8.342;2022-10-19T17:13:08;14.03;87.00
61641;HTU21D;62201;49.966;8.342;2022-10-19T17:15:34;13.98;87.19
61641;HTU21D;62201;49.966;8.342;2022-10-19T17:18:01;13.96;87.39
61641;HTU21D;62201;49.966;8.342;2022-10-19T17:20:27;13.96;87.41
61641;HTU21D;62201;49.966;8.342;2022-10-19T17:22:52;14.00;87.18
61641;HTU21D;62201;49.966;8.342;2022-10-19T17:25:17;13.98;87.09
61641;HTU21D;62201;49.966;8.342;2022-10-19T17:27:43;13.91;87.46
61641;HTU21D;62201;49.966;8.342;2022-10-19T17:30:08;13.82;87.69
61641;HTU21D;62201;49.966;8.342;2022-10-19T17:32:34;13.74;87.90
61641;HTU21D;62201;49.966;8.342;2022-10-19T17:34:59;13.67;88.23
61641;HTU21D;62201;49.966;8.342;2022-10-19T17:37:24;13.63;88.35
61641;HTU21D;62201;49.966;8.342;2022-10-19T17:39:50;13.60;88.52
61641;HTU21D;62201;49.966;8.342;2022-10-19T17:42:15;13.56;88.72